sensor_id;sensor_type;location;lat;lon;timestamp;temperature;humidity
29725;DHT22;16636;48.394;15.468;2022-08-21T00:01:25;18.60;99.90
29725;DHT22;16636;48.394;15.468;2022-08-21T00:03:51;18.60;99.90
29725;DHT22;16636;48.394;15.468;2022-08-21T00:06:18;18.60;99.90
29725;DHT22;16636;48.394;15.468;2022-08-21T00:08:44;18.60;99.90
29725;DHT22;16636;48.394;15.468;2022-08-21T00:11:10;18.50;99.90
29725;DHT22;16636;48.394;15.468;2022-08-21T00:13:36;18.50;99.90
29725;DHT22;16636;48.394;15.468;2022-08-21T00:16:03;18.60;99.90
29725;DHT22;16636;48.394;15.468;2022-08-21T00:18:29;18.50;99.90
29725;DHT22;16636;48.394;15.468;2022-08-21T00:20:55;18.50;99.90
29725;DHT22;16636;48.394;15.468;2022-08-21T00:23:21;18.50;99.90
29725;DHT22;16636;48.394;15.468;2022-08-21T00:25:47;18.50;99.90
29725;DHT22;16636;48.394;15.468;2022-08-21T00:28:14;18.50;99.90
29725;DHT22;16636;48.394;15.468;2022-08-21T00:30:41;18.50;99.90
29725;DHT22;16636;48.394;15.468;2022-08-21T00:33:07;18.40;99.90
29725;DHT22;16636;48.394;15.468;2022-08-21T00:35:37;18.40;99.90
29725;DHT22;16636;48.394;15.468;2022-08-21T00:38:05;18.40;99.90
29725;DHT22;16636;48.394;15.468;2022-08-21T00:43:11;18.40;99.90
29725;DHT22;16636;48.394;15.468;2022-08-21T00:45:38;18.40;99.90
29725;DHT22;16636;48.394;15.468;2022-08-21T00:48:05;18.40;99.90
29725;DHT22;16636;48.394;15.468;2022-08-21T00:50:35;18.40;99.90
29725;DHT22;16636;48.394;15.468;2022-08-21T00:53:02;18.50;99.90
29725;DHT22;16636;48.394;15.468;2022-08-21T00:55:31;18.50;99.90
29725;DHT22;16636;48.394;15.468;2022-08-21T00:57:59;18.50;99.90
29725;DHT22;16636;48.394;15.468;2022-08-21T01:00:30;18.50;99.90
29725;DHT22;16636;48.394;15.468;2022-08-21T01:02:57;18.40;99.90
29725;DHT22;16636;48.394;15.468;2022-08-21T01:05:24;18.50;99.90
29725;DHT22;16636;48.394;15.468;2022-08-21T01:07:50;18.40;99.90
29725;DHT22;16636;48.394;15.468;2022-08-21T01:10:18;18.40;99.90
29725;DHT22;16636;48.394;15.468;2022-08-21T01:12:44;18.40;99.90
29725;DHT22;16636;48.394;15.468;2022-08-21T01:15:11;18.40;99.90
29725;DHT22;16636;48.394;15.468;2022-08-21T01:17:40;18.40;99.90
29725;DHT22;16636;48.394;15.468;2022-08-21T01:20:09;18.40;99.90
29725;DHT22;16636;48.394;15.468;2022-08-21T01:22:35;18.30;99.90
29725;DHT22;16636;48.394;15.468;2022-08-21T01:25:05;18.30;99.90
29725;DHT22;16636;48.394;15.468;2022-08-21T01:27:31;18.30;99.90
29725;DHT22;16636;48.394;15.468;2022-08-21T01:30:02;18.30;99.90
29725;DHT22;16636;48.394;15.468;2022-08-21T01:32:30;18.20;99.90
29725;DHT22;16636;48.394;15.468;2022-08-21T01:34:56;18.20;99.90
29725;DHT22;16636;48.394;15.468;2022-08-21T01:37:22;18.20;99.90
29725;DHT22;16636;48.394;15.468;2022-08-21T01:39:48;18.20;99.90
29725;DHT22;16636;48.394;15.468;2022-08-21T01:42:15;18.30;99.90
29725;DHT22;16636;48.394;15.468;2022-08-21T01:44:41;18.30;99.90
29725;DHT22;16636;48.394;15.468;2022-08-21T01:47:10;18.30;99.90
29725;DHT22;16636;48.394;15.468;2022-08-21T01:49:37;18.30;99.90
29725;DHT22;16636;48.394;15.468;2022-08-21T01:52:04;18.30;99.90
29725;DHT22;16636;48.394;15.468;2022-08-21T01:54:31;18.30;99.90
29725;DHT22;16636;48.394;15.468;2022-08-21T01:56:58;18.20;99.90
29725;DHT22;16636;48.394;15.468;2022-08-21T01:59:25;18.20;99.90
29725;DHT22;16636;48.394;15.468;2022-08-21T02:01:51;18.20;99.90
29725;DHT22;16636;48.394;15.468;2022-08-21T02:04:20;18.20;99.90
29725;DHT22;16636;48.394;15.468;2022-08-21T02:06:46;18.20;99.90
29725;DHT22;16636;48.394;15.468;2022-08-21T02:09:13;18.20;99.90
29725;DHT22;16636;48.394;15.468;2022-08-21T02:11:40;18.20;99.90
29725;DHT22;16636;48.394;15.468;2022-08-21T02:14:11;18.20;99.90
29725;DHT22;16636;48.394;15.468;2022-08-21T02:16:41;18.20;99.90
29725;DHT22;16636;48.394;15.468;2022-08-21T02:19:33;18.20;99.90
29725;DHT22;16636;48.394;15.468;2022-08-21T02:21:58;18.20;99.90
29725;DHT22;16636;48.394;15.468;2022-08-21T02:24:24;18.20;99.90
29725;DHT22;16636;48.394;15.468;2022-08-21T02:26:50;18.20;99.90
29725;DHT22;16636;48.394;15.468;2022-08-21T02:29:16;18.10;99.90
29725;DHT22;16636;48.394;15.468;2022-08-21T02:31:42;18.10;99.90
29725;DHT22;16636;48.394;15.468;2022-08-21T02:34:08;18.10;99.90
29725;DHT22;16636;48.394;15.468;2022-08-21T02:36:34;18.10;99.90
29725;DHT22;16636;48.394;15.468;2022-08-21T02:39:00;18.10;99.90
29725;DHT22;16636;48.394;15.468;2022-08-21T02:41:48;18.10;99.90
29725;DHT22;16636;48.394;15.468;2022-08-21T02:44:14;18.10;99.90
29725;DHT22;16636;48.394;15.468;2022-08-21T02:46:40;18.10;99.90
29725;DHT22;16636;48.394;15.468;2022-08-21T02:49:06;18.10;99.90
29725;DHT22;16636;48.394;15.468;2022-08-21T02:51:32;18.10;99.90
29725;DHT22;16636;48.394;15.468;2022-08-21T02:53:57;18.10;99.90
29725;DHT22;16636;48.394;15.468;2022-08-21T02:56:23;18.20;99.90
29725;DHT22;16636;48.394;15.468;2022-08-21T02:58:51;18.10;99.90
29725;DHT22;16636;48.394;15.468;2022-08-21T03:01:18;18.10;99.90
29725;DHT22;16636;48.394;15.468;2022-08-21T03:03:46;18.10;99.90
29725;DHT22;16636;48.394;15.468;2022-08-21T03:06:16;18.10;99.90
29725;DHT22;16636;48.394;15.468;2022-08-21T03:08:43;18.10;99.90
29725;DHT22;16636;48.394;15.468;2022-08-21T03:11:12;18.10;99.90
29725;DHT22;16636;48.394;15.468;2022-08-21T03:13:38;18.00;99.90
29725;DHT22;16636;48.394;15.468;2022-08-21T03:16:05;18.00;99.90
29725;DHT22;16636;48.394;15.468;2022-08-21T03:18:31;18.00;99.90
29725;DHT22;16636;48.394;15.468;2022-08-21T03:20:57;18.10;99.90
29725;DHT22;16636;48.394;15.468;2022-08-21T03:23:23;18.10;99.90
29725;DHT22;16636;48.394;15.468;2022-08-21T03:25:49;18.10;99.90
29725;DHT22;16636;48.394;15.468;2022-08-21T03:28:19;18.10;99.90
29725;DHT22;16636;48.394;15.468;2022-08-21T03:30:47;18.10;99.90
29725;DHT22;16636;48.394;15.468;2022-08-21T03:33:14;18.10;99.90
29725;DHT22;16636;48.394;15.468;2022-08-21T03:35:41;18.10;99.90
29725;DHT22;16636;48.394;15.468;2022-08-21T03:38:08;18.10;99.90
29725;DHT22;16636;48.394;15.468;2022-08-21T03:40:34;18.10;99.90
29725;DHT22;16636;48.394;15.468;2022-08-21T03:43:00;18.20;99.90
29725;DHT22;16636;48.394;15.468;2022-08-21T03:45:26;18.10;99.90
29725;DHT22;16636;48.394;15.468;2022-08-21T03:47:55;18.10;99.90
29725;DHT22;16636;48.394;15.468;2022-08-21T03:50:26;18.10;99.90
29725;DHT22;16636;48.394;15.468;2022-08-21T03:52:52;18.10;99.90
29725;DHT22;16636;48.394;15.468;2022-08-21T03:55:18;18.20;99.90
29725;DHT22;16636;48.394;15.468;2022-08-21T03:57:45;18.20;99.90
29725;DHT22;16636;48.394;15.468;2022-08-21T04:00:13;18.20;99.90
29725;DHT22;16636;48.394;15.468;2022-08-21T04:02:39;18.30;99.90
29725;DHT22;16636;48.394;15.468;2022-08-21T04:05:07;18.30;99.90
29725;DHT22;16636;48.394;15.468;2022-08-21T04:07:33;18.30;99.90
29725;DHT22;16636;48.394;15.468;2022-08-21T04:09:59;18.30;99.90
29725;DHT22;16636;48.394;15.468;2022-08-21T04:12:25;18.30;99.90
29725;DHT22;16636;48.394;15.468;2022-08-21T04:14:51;18.30;99.90
29725;DHT22;16636;48.394;15.468;2022-08-21T04:17:17;18.30;99.90
29725;DHT22;16636;48.394;15.468;2022-08-21T04:19:44;18.30;99.90
29725;DHT22;16636;48.394;15.468;2022-08-21T04:22:10;18.40;99.90
29725;DHT22;16636;48.394;15.468;2022-08-21T04:24:36;18.40;99.90
29725;DHT22;16636;48.394;15.468;2022-08-21T04:27:01;18.40;99.90
29725;DHT22;16636;48.394;15.468;2022-08-21T04:29:27;18.40;99.90
29725;DHT22;16636;48.394;15.468;2022-08-21T04:31:54;18.40;99.90
29725;DHT22;16636;48.394;15.468;2022-08-21T04:34:20;18.40;99.90
29725;DHT22;16636;48.394;15.468;2022-08-21T04:36:46;18.40;99.90
29725;DHT22;16636;48.394;15.468;2022-08-21T04:39:12;18.40;99.90
29725;DHT22;16636;48.394;15.468;2022-08-21T04:41:38;18.40;99.90
29725;DHT22;16636;48.394;15.468;2022-08-21T04:44:04;18.40;99.90
29725;DHT22;16636;48.394;15.468;2022-08-21T04:46:30;18.50;99.90
29725;DHT22;16636;48.394;15.468;2022-08-21T04:48:56;18.40;99.90
29725;DHT22;16636;48.394;15.468;2022-08-21T04:51:31;18.40;99.90
29725;DHT22;16636;48.394;15.468;2022-08-21T04:53:59;18.40;99.90
29725;DHT22;16636;48.394;15.468;2022-08-21T04:56:53;18.40;99.90
29725;DHT22;16636;48.394;15.468;2022-08-21T04:59:27;18.40;99.90
29725;DHT22;16636;48.394;15.468;2022-08-21T05:01:55;18.40;99.90
29725;DHT22;16636;48.394;15.468;2022-08-21T05:04:24;18.40;99.90
29725;DHT22;16636;48.394;15.468;2022-08-21T05:06:53;18.40;99.90
29725;DHT22;16636;48.394;15.468;2022-08-21T05:09:20;18.40;99.90
29725;DHT22;16636;48.394;15.468;2022-08-21T05:11:47;18.40;99.90
29725;DHT22;16636;48.394;15.468;2022-08-21T05:14:14;18.50;99.90
29725;DHT22;16636;48.394;15.468;2022-08-21T05:16:40;18.50;99.90
29725;DHT22;16636;48.394;15.468;2022-08-21T05:19:08;18.50;99.90
29725;DHT22;16636;48.394;15.468;2022-08-21T05:21:35;18.50;99.90
29725;DHT22;16636;48.394;15.468;2022-08-21T05:24:01;18.60;99.90
29725;DHT22;16636;48.394;15.468;2022-08-21T05:26:27;18.60;99.90
29725;DHT22;16636;48.394;15.468;2022-08-21T05:28:53;18.60;99.90
29725;DHT22;16636;48.394;15.468;2022-08-21T05:31:19;18.60;99.90
29725;DHT22;16636;48.394;15.468;2022-08-21T05:33:45;18.60;99.90
29725;DHT22;16636;48.394;15.468;2022-08-21T05:36:11;18.60;99.90
29725;DHT22;16636;48.394;15.468;2022-08-21T05:38:37;18.60;99.90
29725;DHT22;16636;48.394;15.468;2022-08-21T05:41:03;18.60;99.90
29725;DHT22;16636;48.394;15.468;2022-08-21T05:43:28;18.60;99.90
29725;DHT22;16636;48.394;15.468;2022-08-21T05:45:54;18.60;99.90
29725;DHT22;16636;48.394;15.468;2022-08-21T05:48:23;18.60;99.90
29725;DHT22;16636;48.394;15.468;2022-08-21T05:50:51;18.60;99.90
29725;DHT22;16636;48.394;15.468;2022-08-21T05:53:18;18.60;99.90
29725;DHT22;16636;48.394;15.468;2022-08-21T05:55:45;18.70;99.90
29725;DHT22;16636;48.394;15.468;2022-08-21T05:58:15;18.70;99.90
29725;DHT22;16636;48.394;15.468;2022-08-21T06:00:43;18.70;99.90
29725;DHT22;16636;48.394;15.468;2022-08-21T06:03:12;18.70;99.90
29725;DHT22;16636;48.394;15.468;2022-08-21T06:05:38;18.60;99.90
29725;DHT22;16636;48.394;15.468;2022-08-21T06:08:04;18.60;99.90
29725;DHT22;16636;48.394;15.468;2022-08-21T06:10:31;18.60;99.90
29725;DHT22;16636;48.394;15.468;2022-08-21T06:12:57;18.60;99.90
29725;DHT22;16636;48.394;15.468;2022-08-21T06:15:23;18.60;99.90
29725;DHT22;16636;48.394;15.468;2022-08-21T06:17:49;18.60;99.90
29725;DHT22;16636;48.394;15.468;2022-08-21T06:20:15;18.60;99.90
29725;DHT22;16636;48.394;15.468;2022-08-21T06:22:41;18.60;99.90
29725;DHT22;16636;48.394;15.468;2022-08-21T06:25:07;18.60;99.90
29725;DHT22;16636;48.394;15.468;2022-08-21T06:27:34;18.60;99.90
29725;DHT22;16636;48.394;15.468;2022-08-21T06:30:01;18.50;99.90
29725;DHT22;16636;48.394;15.468;2022-08-21T06:32:26;18.60;99.90
29725;DHT22;16636;48.394;15.468;2022-08-21T06:34:52;18.50;99.90
29725;DHT22;16636;48.394;15.468;2022-08-21T06:37:18;18.60;99.90
29725;DHT22;16636;48.394;15.468;2022-08-21T06:39:44;18.60;99.90
29725;DHT22;16636;48.394;15.468;2022-08-21T06:42:15;18.50;99.90
29725;DHT22;16636;48.394;15.468;2022-08-21T06:44:43;18.60;99.90
29725;DHT22;16636;48.394;15.468;2022-08-21T06:47:09;18.60;99.90
29725;DHT22;16636;48.394;15.468;2022-08-21T06:49:36;18.50;99.90
29725;DHT22;16636;48.394;15.468;2022-08-21T06:52:03;18.60;99.90
29725;DHT22;16636;48.394;15.468;2022-08-21T06:54:29;18.60;99.90
29725;DHT22;16636;48.394;15.468;2022-08-21T06:56:56;18.50;99.90
29725;DHT22;16636;48.394;15.468;2022-08-21T06:59:22;18.60;99.90
29725;DHT22;16636;48.394;15.468;2022-08-21T07:01:47;18.60;99.90
29725;DHT22;16636;48.394;15.468;2022-08-21T07:04:13;18.60;99.90
29725;DHT22;16636;48.394;15.468;2022-08-21T07:06:39;18.70;99.90
29725;DHT22;16636;48.394;15.468;2022-08-21T07:09:11;18.70;99.90
29725;DHT22;16636;48.394;15.468;2022-08-21T07:11:37;18.70;99.90
29725;DHT22;16636;48.394;15.468;2022-08-21T07:14:04;18.70;99.90
29725;DHT22;16636;48.394;15.468;2022-08-21T07:16:30;18.80;99.90
29725;DHT22;16636;48.394;15.468;2022-08-21T07:18:56;18.80;99.90
29725;DHT22;16636;48.394;15.468;2022-08-21T07:21:22;18.90;99.90
29725;DHT22;16636;48.394;15.468;2022-08-21T07:23:50;18.90;99.90
29725;DHT22;16636;48.394;15.468;2022-08-21T07:26:18;18.90;99.90
29725;DHT22;16636;48.394;15.468;2022-08-21T07:28:46;19.00;99.90
29725;DHT22;16636;48.394;15.468;2022-08-21T07:31:14;19.00;99.90
29725;DHT22;16636;48.394;15.468;2022-08-21T07:33:40;19.00;99.90
29725;DHT22;16636;48.394;15.468;2022-08-21T07:36:07;19.10;99.90
29725;DHT22;16636;48.394;15.468;2022-08-21T07:38:34;19.10;99.90
29725;DHT22;16636;48.394;15.468;2022-08-21T07:41:07;19.10;99.90
29725;DHT22;16636;48.394;15.468;2022-08-21T07:43:37;19.10;99.90
29725;DHT22;16636;48.394;15.468;2022-08-21T07:46:03;19.10;99.90
29725;DHT22;16636;48.394;15.468;2022-08-21T07:48:29;19.10;99.90
29725;DHT22;16636;48.394;15.468;2022-08-21T07:50:55;19.20;99.90
29725;DHT22;16636;48.394;15.468;2022-08-21T07:53:21;19.20;99.90
29725;DHT22;16636;48.394;15.468;2022-08-21T07:55:47;19.20;99.90
29725;DHT22;16636;48.394;15.468;2022-08-21T07:58:12;19.20;99.90
29725;DHT22;16636;48.394;15.468;2022-08-21T08:00:39;19.30;99.90
29725;DHT22;16636;48.394;15.468;2022-08-21T08:03:05;19.30;99.90
29725;DHT22;16636;48.394;15.468;2022-08-21T08:05:31;19.30;99.90
29725;DHT22;16636;48.394;15.468;2022-08-21T08:07:58;19.30;99.90
29725;DHT22;16636;48.394;15.468;2022-08-21T08:10:24;19.40;99.90
29725;DHT22;16636;48.394;15.468;2022-08-21T08:12:51;19.40;99.90
29725;DHT22;16636;48.394;15.468;2022-08-21T08:15:20;19.40;99.90
29725;DHT22;16636;48.394;15.468;2022-08-21T08:21:15;19.50;99.90
29725;DHT22;16636;48.394;15.468;2022-08-21T08:23:41;19.50;99.90
29725;DHT22;16636;48.394;15.468;2022-08-21T08:26:07;19.50;99.90
29725;DHT22;16636;48.394;15.468;2022-08-21T08:28:33;19.60;99.90
29725;DHT22;16636;48.394;15.468;2022-08-21T08:31:00;19.60;99.90
29725;DHT22;16636;48.394;15.468;2022-08-21T08:33:26;19.60;99.90
29725;DHT22;16636;48.394;15.468;2022-08-21T08:35:53;19.60;99.90
29725;DHT22;16636;48.394;15.468;2022-08-21T08:38:20;19.70;99.90
29725;DHT22;16636;48.394;15.468;2022-08-21T08:43:35;19.70;99.90
29725;DHT22;16636;48.394;15.468;2022-08-21T08:46:06;19.70;99.90
29725;DHT22;16636;48.394;15.468;2022-08-21T08:48:54;19.70;99.90
29725;DHT22;16636;48.394;15.468;2022-08-21T08:51:46;19.70;99.90
29725;DHT22;16636;48.394;15.468;2022-08-21T08:54:17;19.70;99.90
29725;DHT22;16636;48.394;15.468;2022-08-21T08:56:44;19.80;99.90
29725;DHT22;16636;48.394;15.468;2022-08-21T08:59:26;19.80;99.90
29725;DHT22;16636;48.394;15.468;2022-08-21T09:01:53;19.90;99.90
29725;DHT22;16636;48.394;15.468;2022-08-21T09:04:23;19.90;99.90
29725;DHT22;16636;48.394;15.468;2022-08-21T09:07:01;19.90;99.90
29725;DHT22;16636;48.394;15.468;2022-08-21T09:15:29;19.90;99.90
29725;DHT22;16636;48.394;15.468;2022-08-21T09:20:59;20.00;99.90
29725;DHT22;16636;48.394;15.468;2022-08-21T09:29:34;20.00;99.90
29725;DHT22;16636;48.394;15.468;2022-08-21T09:32:06;20.00;99.90
29725;DHT22;16636;48.394;15.468;2022-08-21T09:34:33;20.10;99.90
29725;DHT22;16636;48.394;15.468;2022-08-21T09:37:00;20.10;99.90
29725;DHT22;16636;48.394;15.468;2022-08-21T09:44:27;20.20;99.90
29725;DHT22;16636;48.394;15.468;2022-08-21T09:46:53;20.20;99.90
29725;DHT22;16636;48.394;15.468;2022-08-21T09:49:33;20.30;99.90
29725;DHT22;16636;48.394;15.468;2022-08-21T09:52:00;20.30;99.90
29725;DHT22;16636;48.394;15.468;2022-08-21T09:54:34;20.40;99.90
29725;DHT22;16636;48.394;15.468;2022-08-21T09:57:19;20.40;99.90
29725;DHT22;16636;48.394;15.468;2022-08-21T10:00:22;20.50;99.90
29725;DHT22;16636;48.394;15.468;2022-08-21T10:02:49;20.50;99.90
29725;DHT22;16636;48.394;15.468;2022-08-21T10:07:41;20.60;99.90
29725;DHT22;16636;48.394;15.468;2022-08-21T10:10:24;20.60;99.90
29725;DHT22;16636;48.394;15.468;2022-08-21T10:18:56;20.70;99.90
29725;DHT22;16636;48.394;15.468;2022-08-21T10:21:31;20.70;99.90
29725;DHT22;16636;48.394;15.468;2022-08-21T10:24:21;20.70;99.90
29725;DHT22;16636;48.394;15.468;2022-08-21T10:47:47;20.80;99.90
29725;DHT22;16636;48.394;15.468;2022-08-21T10:56:12;20.80;99.90
29725;DHT22;16636;48.394;15.468;2022-08-21T10:58:47;20.90;99.90
29725;DHT22;16636;48.394;15.468;2022-08-21T11:01:21;20.90;99.90
29725;DHT22;16636;48.394;15.468;2022-08-21T11:04:12;20.90;99.90
29725;DHT22;16636;48.394;15.468;2022-08-21T11:06:42;20.90;99.90
29725;DHT22;16636;48.394;15.468;2022-08-21T11:09:19;20.90;99.90
29725;DHT22;16636;48.394;15.468;2022-08-21T11:12:06;20.90;99.90
29725;DHT22;16636;48.394;15.468;2022-08-21T11:15:11;21.00;99.90
29725;DHT22;16636;48.394;15.468;2022-08-21T11:17:56;21.00;99.90
29725;DHT22;16636;48.394;15.468;2022-08-21T11:23:34;21.10;99.90
29725;DHT22;16636;48.394;15.468;2022-08-21T11:26:29;21.10;99.90
29725;DHT22;16636;48.394;15.468;2022-08-21T11:29:02;21.20;99.90
29725;DHT22;16636;48.394;15.468;2022-08-21T11:37:21;21.40;99.90
29725;DHT22;16636;48.394;15.468;2022-08-21T11:40:12;21.50;99.90
29725;DHT22;16636;48.394;15.468;2022-08-21T11:45:54;21.50;99.90
29725;DHT22;16636;48.394;15.468;2022-08-21T11:51:16;21.50;99.90
29725;DHT22;16636;48.394;15.468;2022-08-21T11:53:55;21.50;99.90
29725;DHT22;16636;48.394;15.468;2022-08-21T11:56:29;21.50;99.90
29725;DHT22;16636;48.394;15.468;2022-08-21T11:59:02;21.50;99.90
29725;DHT22;16636;48.394;15.468;2022-08-21T12:01:37;21.50;99.90
29725;DHT22;16636;48.394;15.468;2022-08-21T12:04:10;21.50;99.90
29725;DHT22;16636;48.394;15.468;2022-08-21T12:06:42;21.50;99.90
29725;DHT22;16636;48.394;15.468;2022-08-21T12:09:33;21.50;99.90
29725;DHT22;16636;48.394;15.468;2022-08-21T12:12:02;21.50;99.90
29725;DHT22;16636;48.394;15.468;2022-08-21T12:14:43;21.50;99.90
29725;DHT22;16636;48.394;15.468;2022-08-21T12:21:15;21.50;99.90
29725;DHT22;16636;48.394;15.468;2022-08-21T12:29:12;21.50;99.90
29725;DHT22;16636;48.394;15.468;2022-08-21T12:32:42;21.50;99.90
29725;DHT22;16636;48.394;15.468;2022-08-21T12:37:43;21.60;99.90
29725;DHT22;16636;48.394;15.468;2022-08-21T12:40:47;21.70;99.90
29725;DHT22;16636;48.394;15.468;2022-08-21T12:45:50;21.70;99.90
29725;DHT22;16636;48.394;15.468;2022-08-21T12:50:57;21.70;99.90
29725;DHT22;16636;48.394;15.468;2022-08-21T12:56:13;21.70;99.90
29725;DHT22;16636;48.394;15.468;2022-08-21T12:58:43;21.70;99.90
29725;DHT22;16636;48.394;15.468;2022-08-21T13:01:27;21.70;99.90
29725;DHT22;16636;48.394;15.468;2022-08-21T13:03:55;21.80;99.90
29725;DHT22;16636;48.394;15.468;2022-08-21T13:06:23;21.80;99.90
29725;DHT22;16636;48.394;15.468;2022-08-21T13:09:06;21.80;99.90
29725;DHT22;16636;48.394;15.468;2022-08-21T13:11:33;21.80;99.90
29725;DHT22;16636;48.394;15.468;2022-08-21T13:14:01;21.80;99.90
29725;DHT22;16636;48.394;15.468;2022-08-21T13:16:29;21.90;99.90
29725;DHT22;16636;48.394;15.468;2022-08-21T13:18:58;21.90;99.90
29725;DHT22;16636;48.394;15.468;2022-08-21T13:21:40;21.90;99.90
29725;DHT22;16636;48.394;15.468;2022-08-21T13:24:23;21.90;99.90
29725;DHT22;16636;48.394;15.468;2022-08-21T13:26:50;21.90;99.90
29725;DHT22;16636;48.394;15.468;2022-08-21T13:29:19;22.00;99.90
29725;DHT22;16636;48.394;15.468;2022-08-21T13:31:55;22.00;99.90
29725;DHT22;16636;48.394;15.468;2022-08-21T13:34:24;22.10;99.90
29725;DHT22;16636;48.394;15.468;2022-08-21T13:36:57;22.10;99.90
29725;DHT22;16636;48.394;15.468;2022-08-21T13:39:24;22.10;99.90
29725;DHT22;16636;48.394;15.468;2022-08-21T13:41:55;22.10;99.90
29725;DHT22;16636;48.394;15.468;2022-08-21T13:46:53;22.10;99.90
29725;DHT22;16636;48.394;15.468;2022-08-21T13:49:24;22.10;99.90
29725;DHT22;16636;48.394;15.468;2022-08-21T13:51:51;22.10;99.90
29725;DHT22;16636;48.394;15.468;2022-08-21T13:54:37;22.10;99.90
29725;DHT22;16636;48.394;15.468;2022-08-21T13:57:04;22.10;99.90
29725;DHT22;16636;48.394;15.468;2022-08-21T13:59:32;22.10;99.90
29725;DHT22;16636;48.394;15.468;2022-08-21T14:02:16;22.10;99.90
29725;DHT22;16636;48.394;15.468;2022-08-21T14:04:47;22.10;99.90
29725;DHT22;16636;48.394;15.468;2022-08-21T14:07:29;22.10;99.90
29725;DHT22;16636;48.394;15.468;2022-08-21T14:10:01;22.10;99.90
29725;DHT22;16636;48.394;15.468;2022-08-21T14:12:40;22.10;99.90
29725;DHT22;16636;48.394;15.468;2022-08-21T14:15:09;22.20;99.90
29725;DHT22;16636;48.394;15.468;2022-08-21T14:17:38;22.10;99.90
29725;DHT22;16636;48.394;15.468;2022-08-21T14:20:11;22.10;99.90
29725;DHT22;16636;48.394;15.468;2022-08-21T14:22:56;22.10;99.90
29725;DHT22;16636;48.394;15.468;2022-08-21T14:30:46;22.10;99.90
29725;DHT22;16636;48.394;15.468;2022-08-21T14:33:18;22.10;99.90
29725;DHT22;16636;48.394;15.468;2022-08-21T14:35:45;22.10;99.90
29725;DHT22;16636;48.394;15.468;2022-08-21T14:38:37;22.10;99.90
29725;DHT22;16636;48.394;15.468;2022-08-21T14:43:45;22.10;99.90
29725;DHT22;16636;48.394;15.468;2022-08-21T14:46:13;22.10;99.90
29725;DHT22;16636;48.394;15.468;2022-08-21T14:48:44;22.20;99.90
29725;DHT22;16636;48.394;15.468;2022-08-21T14:51:12;22.20;99.90
29725;DHT22;16636;48.394;15.468;2022-08-21T14:53:39;22.20;99.90
29725;DHT22;16636;48.394;15.468;2022-08-21T14:56:05;22.20;99.90
29725;DHT22;16636;48.394;15.468;2022-08-21T14:58:38;22.20;99.90
29725;DHT22;16636;48.394;15.468;2022-08-21T15:01:09;22.20;99.90
29725;DHT22;16636;48.394;15.468;2022-08-21T15:03:36;22.20;99.90
29725;DHT22;16636;48.394;15.468;2022-08-21T15:06:03;22.20;99.90
29725;DHT22;16636;48.394;15.468;2022-08-21T15:08:30;22.20;99.90
29725;DHT22;16636;48.394;15.468;2022-08-21T15:10:56;22.20;99.90
29725;DHT22;16636;48.394;15.468;2022-08-21T15:13:22;22.20;99.90
29725;DHT22;16636;48.394;15.468;2022-08-21T15:15:49;22.20;99.90
29725;DHT22;16636;48.394;15.468;2022-08-21T15:18:19;22.20;99.90
29725;DHT22;16636;48.394;15.468;2022-08-21T15:20:45;22.20;99.90
29725;DHT22;16636;48.394;15.468;2022-08-21T15:23:33;22.10;99.90
29725;DHT22;16636;48.394;15.468;2022-08-21T15:26:00;22.10;99.90
29725;DHT22;16636;48.394;15.468;2022-08-21T15:28:26;22.10;99.90
29725;DHT22;16636;48.394;15.468;2022-08-21T15:31:12;22.10;99.90
29725;DHT22;16636;48.394;15.468;2022-08-21T15:33:38;22.10;99.90
29725;DHT22;16636;48.394;15.468;2022-08-21T15:36:04;22.10;99.90
29725;DHT22;16636;48.394;15.468;2022-08-21T15:38:30;22.10;99.90
29725;DHT22;16636;48.394;15.468;2022-08-21T15:40:56;22.10;99.90
29725;DHT22;16636;48.394;15.468;2022-08-21T15:43:34;22.10;99.90
29725;DHT22;16636;48.394;15.468;2022-08-21T15:46:01;22.10;99.90
29725;DHT22;16636;48.394;15.468;2022-08-21T15:48:27;22.10;99.90
29725;DHT22;16636;48.394;15.468;2022-08-21T15:50:53;22.10;99.90
29725;DHT22;16636;48.394;15.468;2022-08-21T15:53:19;22.10;99.90
29725;DHT22;16636;48.394;15.468;2022-08-21T15:55:45;22.10;99.90
29725;DHT22;16636;48.394;15.468;2022-08-21T15:58:15;22.00;99.90
29725;DHT22;16636;48.394;15.468;2022-08-21T16:00:43;22.10;99.90
29725;DHT22;16636;48.394;15.468;2022-08-21T16:03:11;22.00;99.90
29725;DHT22;16636;48.394;15.468;2022-08-21T16:05:39;22.10;99.90
29725;DHT22;16636;48.394;15.468;2022-08-21T16:08:05;22.00;99.90
29725;DHT22;16636;48.394;15.468;2022-08-21T16:10:31;22.00;99.90
29725;DHT22;16636;48.394;15.468;2022-08-21T16:13:14;22.00;99.90
29725;DHT22;16636;48.394;15.468;2022-08-21T16:15:41;21.90;99.90
29725;DHT22;16636;48.394;15.468;2022-08-21T16:18:07;21.90;99.90
29725;DHT22;16636;48.394;15.468;2022-08-21T16:20:34;21.90;99.90
29725;DHT22;16636;48.394;15.468;2022-08-21T16:23:00;21.90;99.90
29725;DHT22;16636;48.394;15.468;2022-08-21T16:25:26;21.90;99.90
29725;DHT22;16636;48.394;15.468;2022-08-21T16:27:58;21.90;99.90
29725;DHT22;16636;48.394;15.468;2022-08-21T16:30:26;21.80;99.90
29725;DHT22;16636;48.394;15.468;2022-08-21T16:32:52;21.80;99.90
29725;DHT22;16636;48.394;15.468;2022-08-21T16:35:20;21.80;99.90
29725;DHT22;16636;48.394;15.468;2022-08-21T16:37:46;21.70;99.90
29725;DHT22;16636;48.394;15.468;2022-08-21T16:40:13;21.70;99.90
29725;DHT22;16636;48.394;15.468;2022-08-21T16:42:40;21.70;99.90
29725;DHT22;16636;48.394;15.468;2022-08-21T16:45:13;21.60;99.90
29725;DHT22;16636;48.394;15.468;2022-08-21T16:47:39;21.60;99.90
29725;DHT22;16636;48.394;15.468;2022-08-21T16:50:06;21.60;99.90
29725;DHT22;16636;48.394;15.468;2022-08-21T16:52:33;21.60;99.90
29725;DHT22;16636;48.394;15.468;2022-08-21T16:54:59;21.60;99.90
29725;DHT22;16636;48.394;15.468;2022-08-21T16:57:25;21.50;99.90
29725;DHT22;16636;48.394;15.468;2022-08-21T16:59:52;21.50;99.90
29725;DHT22;16636;48.394;15.468;2022-08-21T17:02:35;21.50;99.90
29725;DHT22;16636;48.394;15.468;2022-08-21T17:05:01;21.50;99.90
29725;DHT22;16636;48.394;15.468;2022-08-21T17:07:28;21.40;99.90
29725;DHT22;16636;48.394;15.468;2022-08-21T17:09:54;21.40;99.90
29725;DHT22;16636;48.394;15.468;2022-08-21T17:12:20;21.40;99.90
29725;DHT22;16636;48.394;15.468;2022-08-21T17:14:47;21.40;99.90
29725;DHT22;16636;48.394;15.468;2022-08-21T17:17:14;21.40;99.90
29725;DHT22;16636;48.394;15.468;2022-08-21T17:19:40;21.40;99.90